Soldotna, AK

11:12 AM AKST on December 17, 2014 (GMT -0900)
RAWS SOLDOTNA AKKKS AK US | Change Station
CLOSE
Current Station
Personal Weather Station
Location: Soldotna, AK
Elevation: 154 ft
Nearby Weather Stations

Elev 154 ft 60.50 °N, 151.01 °W | Updated 45 minutes ago

Overcast
Overcast
31 °F
Feels Like 31 °F
N
3
Wind Variable Wind from NE
Gusts 4.0 mph

Today
High -- | Low -- °F
--% Chance of Precip.
Yesterday
High -- | Low -- °F
Precip. -- in
10:08 AM 3:52 PM
Waning Crescent, 20% visible
Pressure 29.52 in
Visibility 10.0 miles
Clouds Mostly Cloudy 6500 ft
Mostly Cloudy 8500 ft
Overcast 11000 ft
Windchill 31 °F
Dew Point 31 °F
Humidity 99%
Rainfall 0.02 in
Snow Depth Not available.
UV 0 out of 12
Pollen Not available.
Air Quality Not available.
Flu Activity Not available.
METAR PASX 171956Z AUTO 00000KT 10SM BKN065 BKN085 OVC110 M02/M03 A2952 RMK AO1

More Conditions Fewer Conditions

Pressure 29.52 in
Visibility 10.0 miles
Clouds Mostly Cloudy 6500 ft
Mostly Cloudy 8500 ft
Overcast 11000 ft
Windchill 31 °F
Dew Point 31 °F
Humidity 99%
Rainfall 0.02 in
Snow Depth Not available.
UV 0 out of 12
Pollen Not available.
Air Quality Not available.
Flu Activity Not available.
METAR PASX 171956Z AUTO 00000KT 10SM BKN065 BKN085 OVC110 M02/M03 A2952 RMK AO1

More Conditions Fewer Conditions

10-Day Weather Forecast

Almanac

Astronomy

Dec. 17, 2014 Rise Set
Actual Time
Civil Twilight
Nautical Twilight
Astronomical Twilight
Moon
Length of Visible Light
Length of Day
Tomorrow will be .
, % of the Moon is Illuminated

Today's Extremes

State Highs State Lows

Community

WunderPhotos

Upload Photos

1,778,802 photos uploaded!

WunderBlogs® & News

Nearby

Air Quality

  Air Quality AQ Index Pollutant
Not available.

Snow Depth

Station Depth Elevation

Earthquake Activity

City Distance Mag. Time & Date
Minimum magnitude displayed is 2.5.

Coastal Water Temperatures

Place Temperature

Nearby Weather Stations